Terminal Aerodrome Forecast
Issued by NWS Pendleton, OR

Home | Current Version | Previous Version | Text Only | Print | Product List | Glossary On
Versions: 1 2 3 4 5 6 7 8 9 10 11 12 13 14 15 16 17 18 19 20 21 22 23 24 25 26 27
000
FTUS46 KPDT 240500
TAFPDT
TAF
KPDT 240537Z 2406/2506 26016KT P6SM FEW040 SCT060
     FM241200 21006KT P6SM FEW020 BKN200
     FM241500 16004KT P6SM SCT020 BKN035 OVC200
     FM241800 23008KT P6SM FEW040 BKN200
     FM250200 19010KT P6SM -SHRA SCT025 OVC040=

USA.gov is the U.S. government's official web portal to all federal, state and local government web resources and services.